Terminal Aerodrome Forecast
Issued by NWS

Home | Current Version | Previous Version | Text Only | Print | Product List | Glossary On
Versions: 1 2 3 4 5 6 7 8 9 10 11 12 13 14 15 16 17 18
000
FTUS41 KPBZ 042322
TAFLBE
TAF
KLBE 042322Z 0500/0524 10009KT P6SM OVC120
     FM050300 14010G20KT 3SM -RASN OVC030
     FM050500 16009KT 3SM -RA OVC015
     FM050800 22009KT P6SM -RA OVC008
     FM051200 26009KT P6SM BKN015
     FM051600 25008KT P6SM BKN025=

USA.gov is the U.S. government's official web portal to all federal, state and local government web resources and services.